Detall de PIREP

Printer-friendly versionPDF version

[2010/08/14 16:29:00]
Flight IATA:CT0001
Pilot Number:041
Company ICAO:CAT
Aircraft Type:F28/A
PAX:75
Departing Airport: LEVC
Destination Airport: LEMH
Alternate Airport:LEPA
Online: VATSIM
Route:RIKOS A33 TURIA A33 GATOS A33 MJV
Flight Level:FL80
No Slew and time accel
No pause
Crash detect
Detect pilot in Cockpit between each 30 and 45 minutes
16:29 Zero fuel Weight: 56825 Lbs, Fuel Weight: 6699 Lbs
16:29 VATSIM:LEVC 141600Z 12012KT 9999 FEW035 26/17 Q1013 NOSIG
16:29 VATSIM:LEMH 141600Z 35011KT 9999 FEW035 24/14 Q1014
16:29 VOICE CATALONIAN
16:35 Parking Brakes off
16:45 Take-off
16:45 Take off Weight: 62859 Lbs
16:45 Wind: 113º @ 010 Knots Heading: 116º
16:45 POS N39º 29´ 14´´ W000º 28´ 34´´
16:45 Gear Up: 173 Knots
16:45 Flaps:2 at 173 Knots
16:46 Flaps:1 at 250 Knots
16:46 Flaps:0 at 266 Knots
16:49 TOC
16:49 Fuel Weight: 5469 Lb
17:00 Wind:296º@004 Knots Heading: 090º Ground Speed: 283 Knots Altitude 8015 ft
17:13 TOD
17:13 Fuel Weight: 4032 Lb
17:15 Wind:288º@015 Knots Heading: 091º Ground Speed: 290 Knots Altitude 6167 ft
17:30 Wind:186º@002 Knots Heading: 059º Ground Speed: 249 Knots Altitude 2985 ft
17:33 Flaps:1 at 189 Knots
17:36 Flaps:2 at 177 Knots
17:37 Gear Down: 179 Knots
17:37 Flaps:3 at 175 Knots
17:38 Flaps:4 at 168 Knots
17:40 TouchDown:Rate -217 ft/min Speed: 117 Knots
17:40 VATSIM:LEMH 141730Z 01009KT 320V040 CAVOK 23/13 Q1014
17:41 Land
17:41 Wind:001º@010 Knots
17:41 Heading: 007º
17:41 Flight Duration: 00:56
17:41 Landing Weight: 59554 Lbs
17:41 POS N39º 51´ 34´´ E004º 13´ 04´´
17:44 Parking brakes on
17:44 Block to Block Duration: 01:09
17:44 Final Fuel: 2603 Lbls
17:44 Spent Fuel: 4096 Lbls
17:44 Flight Length: 236 NM
17:44 TOD Land Length: 105 NM

Exportar CSV

Powered by Drupal - Modified by Danger4k